Thunder radar more information blitzortung!


Radar de pluja more information rain snow radar


Visita la nostra xarxa de llocs de meteo:

Template documentation
and downloads

And another site



No particular awareness of the weather is required.    There are no Weather-warnings

Pagina Historial Weather Underground text

Diari Resum Juny 4, 2017 Unitats:  Mètric    Imperial   Tant
« Previous Dia
SegĂźent Dia »
Diari Setmana Mensual Anual Personalitzada
  Maxima: Minima: Media:
Temperatura: -17.8 °C -9.4 °C -6.4 °C
Punt de rosada: -17.8 °C -12.1 °C -10.1 °C
Humitat: Humidity % 51 % 66 %
Wind Speed: 0 km/h 0 km/h 5.8 km/h
RĂ fegues de vent: 0 km/h - -
Vent:- - South
Pression baro: 0 hPa 34293.4 hPa -
Precipitacions: 76.2 mm    
Historical Graphs
 
 
Dades de taula per Juny 4, 2017
Temps Temperatura Punt de rosada Pression baro Vent Wind Speed RĂ fegues de vent Humitat Rainfall Rate (Hourly)
-17.8 °C -17.8 °C 0 hPa Calm     Humidity % 0 mm
00:00 -6.6 °C -11.9 °C 34395 hPa ENE 7.6 km/h 7.6 km/h 54 % 0 mm
00:05 -6.7 °C -12.1 °C 34428.8 hPa NE 17.9 km/h 17.9 km/h 54 % 0 mm
00:10 -8.2 °C -11 °C 34395 hPa NNE 5.1 km/h 7.7 km/h 72 % 0 mm
00:20 -8.2 °C -11.2 °C 34395 hPa North 2.6 km/h 7.7 km/h 71 % 0 mm
00:30 -8.3 °C -11.2 °C 34395 hPa WNW 2.6 km/h 5.1 km/h 71 % 0 mm
00:40 -8.4 °C -11.1 °C 34428.8 hPa WSW 2.6 km/h 5.1 km/h 73 % 0 mm
00:50 -8.4 °C -11.1 °C 34395 hPa SW 2.6 km/h 5.1 km/h 73 % 0 mm
01:00 -8.4 °C -11.1 °C 34395 hPa Calm     73 % 0 mm
01:10 -8.4 °C -11.1 °C 34395 hPa WSW 2.6 km/h 5.1 km/h 73 % 0 mm
01:20 -8.4 °C -11.1 °C 34395 hPa WSW 2.6 km/h 5.1 km/h 74 % 0 mm
01:30 -8.5 °C -11 °C 34395 hPa WSW 2.6 km/h 5.1 km/h 75 % 0 mm
01:40 -8.6 °C -11 °C 34395 hPa WSW 2.6 km/h 5.1 km/h 75 % 0 mm
01:50 -8.6 °C -10.9 °C 34395 hPa WSW 5.1 km/h 5.1 km/h 76 % 0 mm
02:00 -8.4 °C -10.7 °C 34395 hPa WSW 2.6 km/h 5.1 km/h 77 % 0 mm
02:10 -8.3 °C -10.7 °C 34395 hPa Calm   5.1 km/h 76 % 0 mm
02:20 -8.3 °C -10.7 °C 34395 hPa Calm   2.6 km/h 76 % 0 mm
02:30 -8.2 °C -10.6 °C 34395 hPa Calm   5.1 km/h 76 % 0 mm
02:40 -8.2 °C -10.7 °C 34395 hPa WSW 2.6 km/h 2.6 km/h 75 % 0 mm
02:50 -8.1 °C -10.6 °C 34395 hPa Calm   5.1 km/h 75 % 0 mm
03:00 -8 °C -10.5 °C 34395 hPa SW 2.6 km/h 5.1 km/h 75 % 0 mm
03:10 -7.8 °C -10.3 °C 34395 hPa Calm   5.1 km/h 75 % 0 mm
03:20 -7.6 °C -10.2 °C 34428.8 hPa Calm   2.6 km/h 74 % 0 mm
03:30 -7.4 °C -10.1 °C 34428.8 hPa Calm   5.1 km/h 73 % 0 mm
03:40 -7.4 °C -10.1 °C 34428.8 hPa NW 5.1 km/h 5.1 km/h 73 % 0 mm
03:50 -7.4 °C -10.4 °C 34428.8 hPa NNE 5.1 km/h 7.7 km/h 71 % 0 mm
04:00 -7.2 °C -10.4 °C 34428.8 hPa NNE 2.6 km/h 2.6 km/h 69 % 0 mm
04:10 -7.2 °C -10.3 °C 34428.8 hPa NE 2.6 km/h 5.1 km/h 70 % 0 mm
04:20 -7.1 °C -10.1 °C 34462.7 hPa ENE 2.6 km/h 5.1 km/h 71 % 0 mm
04:30 -6.9 °C -9.9 °C 34462.7 hPa Calm   5.1 km/h 71 % 0 mm
04:40 -6.8 °C -9.9 °C 34428.8 hPa SW 2.6 km/h 5.1 km/h 70 % 0 mm
04:50 -6.9 °C -9.9 °C 34428.8 hPa ESE 7.7 km/h 10.3 km/h 71 % 0 mm
05:00 -6.8 °C -10.1 °C 34428.8 hPa East 2.6 km/h 5.1 km/h 69 % 0 mm
05:10 -6.7 °C -10.2 °C 34428.8 hPa NE 7.7 km/h 10.3 km/h 67 % 0 mm
05:20 -6.7 °C -10.3 °C 34395 hPa NE 7.7 km/h 10.3 km/h 66 % 0 mm
05:30 -6.6 °C -10.2 °C 34395 hPa ENE 5.1 km/h 10.3 km/h 66 % 0 mm
05:40 -6.4 °C -10.1 °C 34462.7 hPa SW 2.6 km/h 7.7 km/h 66 % 0 mm
05:50 -6.4 °C -10.1 °C 34428.8 hPa WSW 5.1 km/h 10.3 km/h 66 % 0 mm
06:00 -6.4 °C -10.2 °C 34428.8 hPa West 7.7 km/h 20.8 km/h 65 % 0 mm
06:10 -6.2 °C -9.9 °C 34462.7 hPa WNW 5.1 km/h 12.9 km/h 65 % 0 mm
06:20 -5.8 °C -9.8 °C 34462.7 hPa West 5.1 km/h 10.3 km/h 64 % 0 mm
06:30 -5.2 °C -9.5 °C 34462.7 hPa West 5.1 km/h 7.7 km/h 62 % 0 mm
06:35 -5.2 °C -9.8 °C 34428.8 hPa West 5.1 km/h 12.9 km/h 60 % 0 mm
11:36 -5.2 °C -9.7 °C 34428.8 hPa ESE 15 km/h 15 km/h 60 % 0 mm
11:41 -5.1 °C -9.8 °C 34428.8 hPa WNW 15 km/h 15 km/h 59 % 0 mm
11:46 -4.9 °C -9.6 °C 34428.8 hPa NNE 9.3 km/h 9.3 km/h 59 % 0 mm
11:51 -5.1 °C -9.9 °C 34395 hPa East 9 km/h 9 km/h 58 % 0 mm
11:56 -5.1 °C -9.9 °C 34395 hPa NNE 11.9 km/h 11.9 km/h 58 % 0 mm
12:01 -4.9 °C -9.8 °C 34395 hPa WNW 6 km/h 6 km/h 58 % 0 mm
12:06 -4.8 °C -9.7 °C 34395 hPa NW 9 km/h 9 km/h 58 % 0 mm
12:11 -4.7 °C -9.7 °C 34395 hPa NNE 9 km/h 9 km/h 57 % 0 mm
12:16 -5.1 °C -10.2 °C 34395 hPa NE 15 km/h 15 km/h 56 % 0 mm
12:21 -5.2 °C -10.2 °C 34395 hPa ENE 12.2 km/h 12.2 km/h 57 % 0 mm
12:26 -4.8 °C -9.9 °C 34395 hPa East 6 km/h 6 km/h 56 % 0 mm
12:31 -4.8 °C -10.1 °C 34395 hPa NW 11.9 km/h 11.9 km/h 55 % 0 mm
12:36 -4.9 °C -10.2 °C 34395 hPa WSW 9 km/h 9 km/h 55 % 0 mm
12:41 -5.1 °C -10.2 °C 34395 hPa NNE 11.9 km/h 11.9 km/h 56 % 0 mm
12:45 -7.7 °C -9.4 °C 34293.4 hPa WNW 7.7 km/h 20.8 km/h 82 % 0 mm
12:46 -4.9 °C -10.1 °C 34395 hPa NE 9 km/h 9 km/h 56 % 0 mm
12:51 -4.9 °C -10.2 °C 34395 hPa ENE 11.9 km/h 11.9 km/h 55 % 0 mm
12:56 -4.7 °C -9.9 °C 34395 hPa NNE 9 km/h 9 km/h 55 % 0 mm
13:01 -4.7 °C -9.9 °C 34395 hPa East 11.9 km/h 11.9 km/h 55 % 0 mm
13:06 -4.6 °C -10.1 °C 34395 hPa NNE 15 km/h 15 km/h 54 % 0 mm
13:11 -4.3 °C -10 °C 34395 hPa NW 11.9 km/h 11.9 km/h 53 % 0 mm
13:16 -4.6 °C -10.2 °C 34395 hPa East 6 km/h 6.8 km/h 53 % 0 mm
13:21 -4.7 °C -10.3 °C 34395 hPa NE 9 km/h 9 km/h 53 % 0 mm
13:26 -4.9 °C -10.7 °C 34395 hPa NNW 11.1 km/h 11.1 km/h 52 % 0 mm
13:31 -4.8 °C -10.4 °C 34395 hPa NE 6 km/h 6 km/h 53 % 0 mm
13:36 -4.4 °C -10.2 °C 34395 hPa SSW 5.1 km/h 5.1 km/h 52 % 0 mm
13:41 -4.2 °C -9.8 °C 34395 hPa WSW 9 km/h 9 km/h 53 % 0 mm
13:46 -4.3 °C -10.2 °C 34395 hPa SSW 15 km/h 15 km/h 52 % 0 mm
13:51 -4.4 °C -10.1 °C 34395 hPa West 11.9 km/h 11.9 km/h 53 % 0 mm
13:56 -4.5 °C -10.2 °C 34395 hPa West 9 km/h 9 km/h 53 % 0 mm
14:01 -4.6 °C -10.2 °C 34395 hPa SW 9 km/h 9 km/h 53 % 0 mm
14:06 -4.6 °C -10.4 °C 34395 hPa South 9 km/h 9 km/h 52 % 0 mm
14:11 -4.4 °C -10.4 °C 34395 hPa WSW 11.9 km/h 11.9 km/h 51 % 0 mm
14:16 -4.4 °C -10.4 °C 34395 hPa NW 10.3 km/h 10.3 km/h 51 % 0 mm
14:18 -4.4 °C -10.4 °C 34395 hPa WSW 11.9 km/h 11.9 km/h 51 % 0 mm
14:23 -4.4 °C -10.4 °C 34361.1 hPa West 6.3 km/h 6.3 km/h 51 % 0 mm
14:28 -4.4 °C -10.4 °C 34361.1 hPa West 6.3 km/h 6.3 km/h 51 % 0 mm
14:33 -4.4 °C -10.4 °C 34361.1 hPa West 6.3 km/h 6.3 km/h 51 % 0 mm
14:38 -4.4 °C -10.4 °C 34361.1 hPa West 6.3 km/h 6.3 km/h 51 % 0 mm
14:43 -4.4 °C -10.4 °C 34361.1 hPa West 6.3 km/h 6.3 km/h 51 % 0 mm
14:48 -4.4 °C -10.4 °C 34361.1 hPa West 6.3 km/h 6.3 km/h 51 % 0 mm
14:53 -4.4 °C -10.4 °C 34361.1 hPa West 6.3 km/h 6.3 km/h 51 % 0 mm
14:58 -4.4 °C -10.4 °C 34361.1 hPa West 6.3 km/h 6.3 km/h 51 % 0 mm
15:03 -4.4 °C -10.4 °C 34361.1 hPa West 6.3 km/h 6.3 km/h 51 % 0 mm
15:08 -4.4 °C -10.4 °C 34361.1 hPa West 6.3 km/h 6.3 km/h 51 % 0 mm
15:13 -4.4 °C -10.4 °C 34361.1 hPa West 6.3 km/h 6.3 km/h 51 % 0 mm
15:18 -4.4 °C -10.4 °C 34361.1 hPa West 6.3 km/h 6.3 km/h 51 % 0 mm
15:23 -4.4 °C -10.4 °C 34361.1 hPa West 6.3 km/h 6.3 km/h 51 % 0 mm
15:28 -4.4 °C -10.4 °C 34361.1 hPa West 6.3 km/h 6.3 km/h 51 % 0 mm
15:33 -4.4 °C -10.4 °C 34361.1 hPa West 6.3 km/h 6.3 km/h 51 % 0 mm
15:38 -4.4 °C -10.4 °C 34361.1 hPa West 6.3 km/h 6.3 km/h 51 % 0 mm
15:43 -4.4 °C -10.4 °C 34361.1 hPa West 6.3 km/h 6.3 km/h 51 % 0 mm
15:48 -4.4 °C -10.4 °C 34361.1 hPa West 6.3 km/h 6.3 km/h 51 % 0 mm
15:53 -4.4 °C -10.4 °C 34361.1 hPa West 6.3 km/h 6.3 km/h 51 % 0 mm
15:58 -4.4 °C -10.4 °C 34361.1 hPa West 6.3 km/h 6.3 km/h 51 % 0 mm
16:03 -4.4 °C -10.4 °C 34361.1 hPa West 6.3 km/h 6.3 km/h 51 % 0 mm
16:08 -4.4 °C -10.4 °C 34361.1 hPa West 6.3 km/h 6.3 km/h 51 % 0 mm
16:13 -4.4 °C -10.4 °C 34361.1 hPa West 6.3 km/h 6.3 km/h 51 % 0 mm
16:18 -4.4 °C -10.4 °C 34361.1 hPa West 6.3 km/h 6.3 km/h 51 % 0 mm
16:23 -4.4 °C -10.4 °C 34361.1 hPa West 6.3 km/h 6.3 km/h 51 % 0 mm
16:28 -4.4 °C -10.4 °C 34361.1 hPa West 6.3 km/h 6.3 km/h 51 % 0 mm
16:33 -4.4 °C -10.4 °C 34361.1 hPa West 6.3 km/h 6.3 km/h 51 % 0 mm
16:38 -4.4 °C -10.4 °C 34361.1 hPa West 6.3 km/h 6.3 km/h 51 % 0 mm
16:43 -4.4 °C -10.4 °C 34361.1 hPa West 6.3 km/h 6.3 km/h 51 % 0 mm
16:48 -4.4 °C -10.4 °C 34361.1 hPa West 6.3 km/h 6.3 km/h 51 % 0 mm
16:53 -4.4 °C -10.4 °C 34361.1 hPa West 6.3 km/h 6.3 km/h 51 % 0 mm
16:58 -4.4 °C -10.4 °C 34361.1 hPa West 6.3 km/h 6.3 km/h 51 % 0 mm
17:03 -4.4 °C -10.4 °C 34361.1 hPa West 6.3 km/h 6.3 km/h 51 % 0 mm
17:08 -4.4 °C -10.4 °C 34361.1 hPa West 6.3 km/h 6.3 km/h 51 % 0 mm
17:13 -4.4 °C -10.4 °C 34361.1 hPa West 6.3 km/h 6.3 km/h 51 % 0 mm
17:18 -4.4 °C -10.4 °C 34361.1 hPa West 6.3 km/h 6.3 km/h 51 % 0 mm
17:23 -4.4 °C -10.4 °C 34361.1 hPa West 6.3 km/h 6.3 km/h 51 % 0 mm
17:28 -4.4 °C -10.4 °C 34361.1 hPa West 6.3 km/h 6.3 km/h 51 % 0 mm
17:33 -4.4 °C -10.4 °C 34361.1 hPa West 6.3 km/h 6.3 km/h 51 % 0 mm
17:38 -4.4 °C -10.4 °C 34361.1 hPa West 6.3 km/h 6.3 km/h 51 % 0 mm
17:45 -7.7 °C -9.4 °C 34293.4 hPa WNW 20.9 km/h 20.9 km/h 82 % 0 mm
17:50 -7.6 °C -9.4 °C 34327.3 hPa NNE 15 km/h 15 km/h 81 % 76.2 mm
17:55 -7.6 °C -9.4 °C 34327.3 hPa ENE 11.9 km/h 11.9 km/h 81 % 76.2 mm
18:00 -7.5 °C -9.3 °C 34327.3 hPa ENE 11.9 km/h 11.9 km/h 81 % 76.2 mm
18:05 -7.5 °C -9.4 °C 34327.3 hPa NE 15 km/h 15 km/h 80 % 76.2 mm
18:10 -7.4 °C -9.5 °C 34327.3 hPa NNE 9 km/h 9 km/h 79 % 76.2 mm
18:11 -7.4 °C -9.5 °C 34327.3 hPa NNE 9 km/h 9 km/h 79 % 76.2 mm
18:16 -7.3 °C -9.3 °C 34327.3 hPa East 10.3 km/h 10.3 km/h 80 % 76.2 mm
18:21 -7.4 °C -9.4 °C 34327.3 hPa NNE 15 km/h 15 km/h 79 % 76.2 mm
18:26 -7.4 °C -9.6 °C 34327.3 hPa NNE 17.9 km/h 17.9 km/h 78 % 76.2 mm
18:31 -7.2 °C -9.3 °C 34327.3 hPa NNW 6 km/h 6 km/h 78 % 76.2 mm
18:36 -7 °C -9.3 °C 34327.3 hPa North 9.8 km/h 9.8 km/h 77 % 76.2 mm
18:41 -6.9 °C -9.3 °C 34327.3 hPa ENE 9 km/h 9 km/h 76 % 76.2 mm
18:46 -6.9 °C -9.4 °C 34327.3 hPa NE 8.5 km/h 8.5 km/h 75 % 76.2 mm
18:51 -6.8 °C -9.5 °C 34327.3 hPa NNE 9.3 km/h 9.3 km/h 74 % 0 mm
18:56 -6.9 °C -9.7 °C 34327.3 hPa NE 9 km/h 9 km/h 73 % 0 mm
19:01 -6.8 °C -9.6 °C 34327.3 hPa NE 6 km/h 6 km/h 73 % 0 mm
19:06 -6.8 °C -9.6 °C 34293.4 hPa NE 9 km/h 9 km/h 73 % 0 mm
19:11 -6.8 °C -9.6 °C 34293.4 hPa NNE 9 km/h 9 km/h 73 % 0 mm
19:16 -6.8 °C -9.7 °C 34293.4 hPa East 5.1 km/h 5.1 km/h 72 % 0 mm
19:21 -6.8 °C -9.7 °C 34327.3 hPa NNE 6 km/h 6 km/h 72 % 0 mm
19:26 -6.9 °C -9.8 °C 34327.3 hPa ENE 9 km/h 9 km/h 72 % 0 mm
19:31 -6.9 °C -9.8 °C 34327.3 hPa NNE 9 km/h 9 km/h 72 % 0 mm
19:36 -6.9 °C -9.8 °C 34327.3 hPa ENE 8 km/h 8 km/h 72 % 0 mm
19:41 -6.8 °C -9.6 °C 34327.3 hPa NNE 3.1 km/h 3.1 km/h 73 % 0 mm
19:46 -6.8 °C -9.7 °C 34327.3 hPa NE 6 km/h 6 km/h 72 % 0 mm
19:51 -6.8 °C -9.7 °C 34293.4 hPa North 6 km/h 6 km/h 72 % 0 mm
19:56 -6.8 °C -9.7 °C 34293.4 hPa WNW 3.1 km/h   72 % 0 mm
20:01 -6.8 °C -9.7 °C 34293.4 hPa ENE 3.1 km/h   72 % 0 mm
20:06 -6.8 °C -9.7 °C 34327.3 hPa ENE 4.2 km/h 4.2 km/h 72 % 0 mm
20:11 -6.8 °C -9.7 °C 34327.3 hPa ENE 4.2 km/h 4.2 km/h 72 % 0 mm
20:16 -6.8 °C -9.7 °C 34327.3 hPa East 9 km/h 9 km/h 72 % 0 mm
20:21 -6.9 °C -9.8 °C 34327.3 hPa East 3.1 km/h   72 % 0 mm
20:26 -6.8 °C -9.7 °C 34327.3 hPa Calm     72 % 0 mm
20:31 -6.8 °C -9.7 °C 34327.3 hPa Calm     72 % 0 mm
20:36 -6.8 °C -9.6 °C 34293.4 hPa SSE 6 km/h 6 km/h 73 % 0 mm
20:41 -6.8 °C -9.6 °C 34293.4 hPa WSW 3.1 km/h 3.1 km/h 73 % 0 mm
20:46 -6.8 °C -9.6 °C 34293.4 hPa WSW 6 km/h 6 km/h 73 % 0 mm
20:51 -6.9 °C -9.6 °C 34327.3 hPa WSW 6 km/h 6 km/h 74 % 0 mm
20:56 -6.9 °C -9.6 °C 34327.3 hPa NE 2.3 km/h   74 % 0 mm
21:01 -7.1 °C -9.7 °C 34327.3 hPa NE 6 km/h 6 km/h 74 % 0 mm
21:06 -7.1 °C -9.8 °C 34293.4 hPa Calm     74 % 0 mm
21:11 -7.2 °C -9.9 °C 34293.4 hPa ENE 6 km/h 6 km/h 73 % 0 mm
21:16 -7.2 °C -9.9 °C 34293.4 hPa NE 3.1 km/h 3.1 km/h 73 % 0 mm
21:21 -7.2 °C -9.9 °C 34293.4 hPa NNE 8 km/h 8 km/h 73 % 0 mm
21:26 -7.2 °C -9.9 °C 34293.4 hPa NNE 3.1 km/h 3.1 km/h 73 % 0 mm
21:31 -7.3 °C -9.9 °C 34293.4 hPa ENE 3.1 km/h   74 % 0 mm
21:36 -7.3 °C -9.9 °C 34293.4 hPa Calm     74 % 0 mm
21:41 -7.3 °C -9.9 °C 34293.4 hPa ENE 3.1 km/h 3.1 km/h 74 % 0 mm
21:46 -7.3 °C -9.9 °C 34293.4 hPa NE 6 km/h 6 km/h 74 % 0 mm
21:51 -7.3 °C -9.9 °C 34293.4 hPa Calm     74 % 0 mm
21:56 -7.3 °C -9.8 °C 34293.4 hPa Calm     75 % 0 mm
22:01 -7.4 °C -9.9 °C 34293.4 hPa NE 3.1 km/h 3.1 km/h 75 % 0 mm
22:06 -7.4 °C -9.9 °C 34293.4 hPa Calm     75 % 0 mm
22:10 -8.7 °C -10.2 °C 34327.3 hPa Calm     84 % 0 mm
22:11 -7.4 °C -9.9 °C 34293.4 hPa NNE 3.1 km/h   75 % 0 mm
22:16 -7.4 °C -9.9 °C 34293.4 hPa NE 6 km/h 6 km/h 75 % 0 mm
22:20 -8.6 °C -10.1 °C 34327.3 hPa Calm   2.6 km/h 85 % 0 mm
22:21 -7.4 °C -9.8 °C 34327.3 hPa NNE 6 km/h 6 km/h 76 % 0 mm
22:26 -7.4 °C -9.8 °C 34327.3 hPa NE 5.1 km/h 5.1 km/h 76 % 0 mm
22:30 -8.7 °C -10.1 °C 34327.3 hPa WNW 2.6 km/h 5.1 km/h 85 % 0 mm
22:31 -7.5 °C -9.9 °C 34327.3 hPa NNE 3.1 km/h   76 % 0 mm
22:36 -7.5 °C -9.9 °C 34327.3 hPa Calm     76 % 0 mm
22:40 -8.8 °C -10.2 °C 34327.3 hPa West 5.1 km/h 7.7 km/h 85 % 25.4 mm
22:41 -7.5 °C -9.8 °C 34327.3 hPa Calm     77 % 0 mm
22:46 -7.5 °C -9.8 °C 34327.3 hPa Calm     77 % 0 mm
22:50 -8.9 °C -10.2 °C 34327.3 hPa WSW 5.1 km/h 5.1 km/h 86 % 25.4 mm
22:51 -7.6 °C -9.8 °C 34327.3 hPa Calm     77 % 0 mm
22:56 -7.5 °C -9.8 °C 34327.3 hPa NNW 3.1 km/h 3.1 km/h 77 % 0 mm
23:00 -9.1 °C -10.3 °C 34327.3 hPa SW 5.1 km/h 5.1 km/h 86 % 25.4 mm
23:01 -7.6 °C -9.8 °C 34327.3 hPa NNE 3.1 km/h   77 % 0 mm
23:06 -7.5 °C -9.8 °C 34327.3 hPa WNW 2.3 km/h   77 % 0 mm
23:10 -9.1 °C -10.3 °C 34327.3 hPa SW 2.6 km/h 5.1 km/h 87 % 25.4 mm
23:11 -7.5 °C -9.8 °C 34327.3 hPa Calm     77 % 0 mm
23:16 -7.5 °C -9.8 °C 34327.3 hPa NNE 3.1 km/h 3.1 km/h 77 % 0 mm
23:20 -9.2 °C -10.4 °C 34327.3 hPa Calm   5.1 km/h 87 % 0 mm
23:21 -7.5 °C -9.8 °C 34327.3 hPa NE 6.8 km/h   77 % 0 mm
23:26 -7.5 °C -9.8 °C 34327.3 hPa SW 3.1 km/h   77 % 0 mm
23:30 -9.2 °C -10.3 °C 34327.3 hPa Calm   2.6 km/h 88 % 0 mm
23:31 -7.4 °C -9.7 °C 34327.3 hPa WSW 3.1 km/h 3.1 km/h 77 % 0 mm
23:36 -7.6 °C -9.7 °C 34327.3 hPa SW 3.1 km/h 3.1 km/h 78 % 0 mm
23:40 -9.3 °C -10.3 °C 34293.4 hPa Calm   5.1 km/h 89 % 33.02 mm
23:41 -7.7 °C -9.7 °C 34327.3 hPa SW 4.2 km/h   79 % 0 mm
23:46 -7.7 °C -9.7 °C 34327.3 hPa Calm     79 % 0 mm
23:50 -9.4 °C -10.6 °C 34327.3 hPa SW 5.1 km/h 7.7 km/h 88 % 33.02 mm
23:51 -7.7 °C -9.7 °C 34293.4 hPa Calm     80 % 0 mm
23:56 -7.7 °C -9.7 °C 34293.4 hPa Calm     80 % 0 mm
Meteo Sesrovires
Elogis d' Weather Underground - 1.5 mb

Guio original per  Jim McMurry - jmcmurry@mwt.net Adaptat per a la plantilla per  Wim van der Kuil - Leuven-Template.eu

Trobareu la nostra informacio del temps tambe a:

Weather Underground

AWEKAS